sensor_id;sensor_type;location;lat;lon;timestamp;P1;durP1;ratioP1;P2;durP2;ratioP2
795;SDS011;381;48.770;9.188;2022-12-31T00:00:41;3.60;;;2.70;;
795;SDS011;381;48.770;9.188;2022-12-31T00:05:43;2.13;;;2.03;;
795;SDS011;381;48.770;9.188;2022-12-31T00:10:46;2.23;;;2.13;;
795;SDS011;381;48.770;9.188;2022-12-31T00:15:48;2.33;;;2.23;;
795;SDS011;381;48.770;9.188;2022-12-31T00:20:50;2.13;;;2.03;;
795;SDS011;381;48.770;9.188;2022-12-31T00:25:54;2.33;;;2.23;;
795;SDS011;381;48.770;9.188;2022-12-31T00:30:56;1.80;;;1.80;;
795;SDS011;381;48.770;9.188;2022-12-31T00:36:04;2.83;;;2.73;;
795;SDS011;381;48.770;9.188;2022-12-31T00:41:10;3.10;;;3.00;;
795;SDS011;381;48.770;9.188;2022-12-31T00:46:13;2.83;;;2.60;;
795;SDS011;381;48.770;9.188;2022-12-31T00:51:16;2.73;;;2.50;;
795;SDS011;381;48.770;9.188;2022-12-31T00:56:21;2.40;;;2.30;;
795;SDS011;381;48.770;9.188;2022-12-31T01:01:26;2.40;;;2.30;;
795;SDS011;381;48.770;9.188;2022-12-31T01:06:29;2.50;;;2.40;;
795;SDS011;381;48.770;9.188;2022-12-31T01:11:33;2.57;;;2.47;;
795;SDS011;381;48.770;9.188;2022-12-31T01:16:35;2.20;;;2.10;;
795;SDS011;381;48.770;9.188;2022-12-31T01:21:40;2.70;;;2.60;;
795;SDS011;381;48.770;9.188;2022-12-31T01:26:44;2.63;;;2.43;;
795;SDS011;381;48.770;9.188;2022-12-31T01:31:46;2.90;;;2.33;;
795;SDS011;381;48.770;9.188;2022-12-31T01:36:49;2.50;;;2.30;;
795;SDS011;381;48.770;9.188;2022-12-31T01:41:52;2.80;;;2.70;;
795;SDS011;381;48.770;9.188;2022-12-31T01:46:55;2.53;;;2.43;;
795;SDS011;381;48.770;9.188;2022-12-31T01:52:00;3.40;;;2.47;;
795;SDS011;381;48.770;9.188;2022-12-31T01:57:06;2.20;;;2.10;;
795;SDS011;381;48.770;9.188;2022-12-31T02:02:09;2.60;;;2.50;;
795;SDS011;381;48.770;9.188;2022-12-31T02:07:12;2.50;;;2.40;;
795;SDS011;381;48.770;9.188;2022-12-31T02:12:15;2.60;;;2.50;;
795;SDS011;381;48.770;9.188;2022-12-31T02:17:19;2.50;;;2.40;;
795;SDS011;381;48.770;9.188;2022-12-31T02:22:35;2.50;;;2.40;;
795;SDS011;381;48.770;9.188;2022-12-31T02:27:57;2.80;;;2.70;;
795;SDS011;381;48.770;9.188;2022-12-31T02:33:12;3.00;;;2.83;;
795;SDS011;381;48.770;9.188;2022-12-31T02:38:21;2.30;;;2.20;;
795;SDS011;381;48.770;9.188;2022-12-31T02:43:27;2.77;;;2.50;;
795;SDS011;381;48.770;9.188;2022-12-31T02:48:34;2.67;;;2.57;;
795;SDS011;381;48.770;9.188;2022-12-31T02:53:48;2.30;;;2.20;;
795;SDS011;381;48.770;9.188;2022-12-31T02:59:00;2.53;;;2.43;;
795;SDS011;381;48.770;9.188;2022-12-31T03:04:23;2.70;;;2.50;;
795;SDS011;381;48.770;9.188;2022-12-31T03:09:33;3.20;;;3.00;;
795;SDS011;381;48.770;9.188;2022-12-31T03:14:35;2.57;;;2.30;;
795;SDS011;381;48.770;9.188;2022-12-31T03:19:39;2.50;;;2.40;;
795;SDS011;381;48.770;9.188;2022-12-31T03:25:00;2.20;;;2.10;;
795;SDS011;381;48.770;9.188;2022-12-31T03:30:26;2.60;;;2.50;;
795;SDS011;381;48.770;9.188;2022-12-31T03:35:30;2.73;;;2.63;;
795;SDS011;381;48.770;9.188;2022-12-31T03:40:36;3.63;;;3.33;;
795;SDS011;381;48.770;9.188;2022-12-31T03:45:40;2.40;;;2.30;;
795;SDS011;381;48.770;9.188;2022-12-31T03:50:44;4.43;;;2.27;;
795;SDS011;381;48.770;9.188;2022-12-31T03:55:49;2.40;;;2.30;;
795;SDS011;381;48.770;9.188;2022-12-31T04:00:51;2.50;;;2.40;;
795;SDS011;381;48.770;9.188;2022-12-31T04:05:55;2.70;;;2.60;;
795;SDS011;381;48.770;9.188;2022-12-31T04:10:57;2.40;;;2.30;;
795;SDS011;381;48.770;9.188;2022-12-31T04:15:59;2.27;;;2.17;;
795;SDS011;381;48.770;9.188;2022-12-31T04:21:05;2.70;;;2.60;;
795;SDS011;381;48.770;9.188;2022-12-31T04:26:08;2.60;;;2.30;;
795;SDS011;381;48.770;9.188;2022-12-31T04:31:10;2.70;;;2.60;;
795;SDS011;381;48.770;9.188;2022-12-31T04:36:13;2.40;;;2.30;;
795;SDS011;381;48.770;9.188;2022-12-31T04:41:15;2.40;;;2.30;;
795;SDS011;381;48.770;9.188;2022-12-31T04:46:19;2.40;;;2.30;;
795;SDS011;381;48.770;9.188;2022-12-31T04:51:24;2.70;;;2.60;;
795;SDS011;381;48.770;9.188;2022-12-31T04:56:27;4.57;;;3.27;;
795;SDS011;381;48.770;9.188;2022-12-31T05:01:29;2.70;;;2.60;;
795;SDS011;381;48.770;9.188;2022-12-31T05:06:33;3.50;;;3.20;;
795;SDS011;381;48.770;9.188;2022-12-31T05:11:35;2.60;;;2.50;;
795;SDS011;381;48.770;9.188;2022-12-31T05:16:40;2.43;;;2.20;;
795;SDS011;381;48.770;9.188;2022-12-31T05:21:44;2.50;;;2.40;;
795;SDS011;381;48.770;9.188;2022-12-31T05:27:06;2.67;;;2.47;;
795;SDS011;381;48.770;9.188;2022-12-31T05:32:08;3.90;;;3.60;;
795;SDS011;381;48.770;9.188;2022-12-31T05:37:11;2.33;;;2.23;;
795;SDS011;381;48.770;9.188;2022-12-31T05:42:13;2.27;;;2.17;;
795;SDS011;381;48.770;9.188;2022-12-31T05:47:15;2.23;;;2.13;;
795;SDS011;381;48.770;9.188;2022-12-31T05:52:19;2.83;;;2.20;;
795;SDS011;381;48.770;9.188;2022-12-31T05:57:21;2.30;;;2.20;;
795;SDS011;381;48.770;9.188;2022-12-31T06:02:25;2.67;;;2.57;;
795;SDS011;381;48.770;9.188;2022-12-31T06:07:28;2.50;;;2.40;;
795;SDS011;381;48.770;9.188;2022-12-31T06:12:30;2.57;;;2.40;;
795;SDS011;381;48.770;9.188;2022-12-31T06:17:33;2.20;;;2.10;;
795;SDS011;381;48.770;9.188;2022-12-31T06:22:36;1.90;;;1.90;;
795;SDS011;381;48.770;9.188;2022-12-31T06:27:38;2.10;;;2.10;;
795;SDS011;381;48.770;9.188;2022-12-31T06:32:40;2.00;;;1.90;;
795;SDS011;381;48.770;9.188;2022-12-31T06:37:43;2.43;;;2.33;;
795;SDS011;381;48.770;9.188;2022-12-31T06:42:46;2.50;;;2.10;;
795;SDS011;381;48.770;9.188;2022-12-31T06:47:48;2.10;;;2.00;;
795;SDS011;381;48.770;9.188;2022-12-31T06:52:51;2.13;;;2.03;;
795;SDS011;381;48.770;9.188;2022-12-31T06:57:53;2.03;;;1.93;;
795;SDS011;381;48.770;9.188;2022-12-31T07:03:17;2.00;;;1.90;;
795;SDS011;381;48.770;9.188;2022-12-31T07:08:38;2.00;;;2.00;;
795;SDS011;381;48.770;9.188;2022-12-31T07:13:53;1.90;;;1.90;;
795;SDS011;381;48.770;9.188;2022-12-31T07:19:19;2.00;;;2.00;;
795;SDS011;381;48.770;9.188;2022-12-31T07:24:29;1.63;;;1.57;;
795;SDS011;381;48.770;9.188;2022-12-31T07:29:36;1.90;;;1.80;;
795;SDS011;381;48.770;9.188;2022-12-31T07:34:49;1.50;;;1.40;;
795;SDS011;381;48.770;9.188;2022-12-31T07:40:03;2.30;;;2.10;;
795;SDS011;381;48.770;9.188;2022-12-31T07:45:13;1.90;;;1.80;;
795;SDS011;381;48.770;9.188;2022-12-31T07:50:21;2.13;;;2.03;;
795;SDS011;381;48.770;9.188;2022-12-31T07:55:25;2.43;;;2.20;;
795;SDS011;381;48.770;9.188;2022-12-31T08:00:27;2.30;;;2.10;;
795;SDS011;381;48.770;9.188;2022-12-31T08:05:32;1.70;;;1.70;;
795;SDS011;381;48.770;9.188;2022-12-31T08:10:44;2.10;;;2.00;;
795;SDS011;381;48.770;9.188;2022-12-31T08:15:58;2.00;;;1.90;;
795;SDS011;381;48.770;9.188;2022-12-31T08:21:03;1.70;;;1.70;;
795;SDS011;381;48.770;9.188;2022-12-31T08:26:21;2.00;;;1.90;;
795;SDS011;381;48.770;9.188;2022-12-31T08:31:33;2.10;;;2.00;;
795;SDS011;381;48.770;9.188;2022-12-31T08:36:42;2.03;;;2.00;;
795;SDS011;381;48.770;9.188;2022-12-31T08:41:51;2.03;;;1.97;;
795;SDS011;381;48.770;9.188;2022-12-31T08:46:59;2.20;;;1.80;;
795;SDS011;381;48.770;9.188;2022-12-31T08:52:12;2.10;;;1.90;;
795;SDS011;381;48.770;9.188;2022-12-31T08:57:19;2.23;;;2.00;;
795;SDS011;381;48.770;9.188;2022-12-31T09:02:33;1.40;;;1.30;;
795;SDS011;381;48.770;9.188;2022-12-31T09:07:58;1.77;;;1.40;;
795;SDS011;381;48.770;9.188;2022-12-31T09:13:16;2.03;;;1.93;;
795;SDS011;381;48.770;9.188;2022-12-31T09:18:25;1.93;;;1.83;;
795;SDS011;381;48.770;9.188;2022-12-31T09:23:28;2.20;;;2.00;;
795;SDS011;381;48.770;9.188;2022-12-31T09:28:35;1.80;;;1.70;;
795;SDS011;381;48.770;9.188;2022-12-31T09:33:45;2.00;;;1.90;;
795;SDS011;381;48.770;9.188;2022-12-31T09:38:53;3.40;;;3.10;;
795;SDS011;381;48.770;9.188;2022-12-31T09:44:14;2.00;;;1.90;;
795;SDS011;381;48.770;9.188;2022-12-31T09:49:54;2.63;;;2.53;;
795;SDS011;381;48.770;9.188;2022-12-31T10:00:48;1.80;;;1.80;;
795;SDS011;381;48.770;9.188;2022-12-31T10:06:10;2.30;;;2.10;;
795;SDS011;381;48.770;9.188;2022-12-31T10:11:22;1.90;;;1.73;;
795;SDS011;381;48.770;9.188;2022-12-31T10:16:40;2.63;;;2.43;;
795;SDS011;381;48.770;9.188;2022-12-31T10:21:52;2.00;;;1.90;;
795;SDS011;381;48.770;9.188;2022-12-31T10:27:16;2.30;;;2.13;;
795;SDS011;381;48.770;9.188;2022-12-31T10:32:32;1.63;;;1.63;;
795;SDS011;381;48.770;9.188;2022-12-31T10:37:42;2.10;;;2.00;;
795;SDS011;381;48.770;9.188;2022-12-31T10:59:43;1.80;;;1.73;;
795;SDS011;381;48.770;9.188;2022-12-31T11:11:01;1.70;;;1.60;;
795;SDS011;381;48.770;9.188;2022-12-31T11:16:17;1.60;;;1.60;;
795;SDS011;381;48.770;9.188;2022-12-31T11:21:36;1.50;;;1.50;;
795;SDS011;381;48.770;9.188;2022-12-31T11:26:52;2.70;;;1.90;;
795;SDS011;381;48.770;9.188;2022-12-31T11:32:05;2.67;;;1.90;;
795;SDS011;381;48.770;9.188;2022-12-31T11:37:31;1.63;;;1.47;;
795;SDS011;381;48.770;9.188;2022-12-31T11:42:41;3.47;;;2.67;;
795;SDS011;381;48.770;9.188;2022-12-31T11:47:55;2.47;;;2.37;;
795;SDS011;381;48.770;9.188;2022-12-31T11:53:11;1.93;;;1.83;;
795;SDS011;381;48.770;9.188;2022-12-31T11:58:25;1.90;;;1.80;;
795;SDS011;381;48.770;9.188;2022-12-31T12:03:28;2.20;;;2.10;;
795;SDS011;381;48.770;9.188;2022-12-31T12:08:32;1.60;;;1.60;;
795;SDS011;381;48.770;9.188;2022-12-31T12:13:36;2.33;;;2.23;;
795;SDS011;381;48.770;9.188;2022-12-31T12:18:39;2.23;;;2.13;;
795;SDS011;381;48.770;9.188;2022-12-31T12:23:53;1.87;;;1.70;;
795;SDS011;381;48.770;9.188;2022-12-31T12:28:58;2.37;;;2.13;;
795;SDS011;381;48.770;9.188;2022-12-31T12:34:01;2.00;;;1.90;;
795;SDS011;381;48.770;9.188;2022-12-31T12:39:05;2.03;;;1.80;;
795;SDS011;381;48.770;9.188;2022-12-31T12:44:13;2.77;;;2.57;;
795;SDS011;381;48.770;9.188;2022-12-31T12:49:18;2.67;;;2.57;;
795;SDS011;381;48.770;9.188;2022-12-31T12:54:27;7.20;;;4.37;;
795;SDS011;381;48.770;9.188;2022-12-31T12:59:44;2.77;;;2.60;;
795;SDS011;381;48.770;9.188;2022-12-31T13:05:07;2.40;;;2.30;;
795;SDS011;381;48.770;9.188;2022-12-31T13:10:25;2.67;;;2.47;;
795;SDS011;381;48.770;9.188;2022-12-31T13:15:51;2.10;;;2.00;;
795;SDS011;381;48.770;9.188;2022-12-31T13:20:58;2.40;;;2.30;;
795;SDS011;381;48.770;9.188;2022-12-31T13:26:10;6.37;;;3.60;;
795;SDS011;381;48.770;9.188;2022-12-31T13:31:20;2.10;;;2.00;;
795;SDS011;381;48.770;9.188;2022-12-31T13:36:27;2.03;;;1.93;;
795;SDS011;381;48.770;9.188;2022-12-31T13:41:35;4.30;;;2.00;;
795;SDS011;381;48.770;9.188;2022-12-31T13:46:43;1.77;;;1.77;;
795;SDS011;381;48.770;9.188;2022-12-31T13:51:49;2.10;;;1.93;;
795;SDS011;381;48.770;9.188;2022-12-31T13:56:57;2.10;;;1.90;;
795;SDS011;381;48.770;9.188;2022-12-31T14:02:04;3.90;;;2.10;;
795;SDS011;381;48.770;9.188;2022-12-31T14:07:18;1.87;;;1.77;;
795;SDS011;381;48.770;9.188;2022-12-31T14:12:28;2.50;;;2.40;;
795;SDS011;381;48.770;9.188;2022-12-31T14:17:36;2.00;;;1.90;;
795;SDS011;381;48.770;9.188;2022-12-31T14:22:48;2.77;;;2.57;;
795;SDS011;381;48.770;9.188;2022-12-31T14:27:57;2.30;;;1.87;;
795;SDS011;381;48.770;9.188;2022-12-31T14:38:28;2.00;;;1.90;;
795;SDS011;381;48.770;9.188;2022-12-31T14:43:43;1.90;;;1.80;;
795;SDS011;381;48.770;9.188;2022-12-31T14:48:54;2.10;;;2.00;;
795;SDS011;381;48.770;9.188;2022-12-31T14:54:22;2.03;;;1.93;;
795;SDS011;381;48.770;9.188;2022-12-31T14:59:28;2.70;;;2.50;;
795;SDS011;381;48.770;9.188;2022-12-31T15:04:33;3.27;;;2.20;;
795;SDS011;381;48.770;9.188;2022-12-31T15:09:47;2.37;;;2.27;;
795;SDS011;381;48.770;9.188;2022-12-31T15:20:41;2.80;;;2.33;;
795;SDS011;381;48.770;9.188;2022-12-31T15:25:52;2.40;;;2.20;;
795;SDS011;381;48.770;9.188;2022-12-31T15:31:00;2.70;;;2.50;;
795;SDS011;381;48.770;9.188;2022-12-31T15:36:13;2.70;;;2.60;;
795;SDS011;381;48.770;9.188;2022-12-31T15:41:25;2.23;;;2.13;;
795;SDS011;381;48.770;9.188;2022-12-31T15:46:32;3.43;;;3.20;;
795;SDS011;381;48.770;9.188;2022-12-31T15:52:28;3.40;;;3.20;;
795;SDS011;381;48.770;9.188;2022-12-31T15:57:38;2.80;;;2.70;;
795;SDS011;381;48.770;9.188;2022-12-31T16:02:45;2.60;;;2.50;;
795;SDS011;381;48.770;9.188;2022-12-31T16:07:57;2.37;;;2.27;;
795;SDS011;381;48.770;9.188;2022-12-31T16:13:02;3.60;;;3.30;;
795;SDS011;381;48.770;9.188;2022-12-31T16:18:10;3.30;;;3.10;;
795;SDS011;381;48.770;9.188;2022-12-31T16:23:18;3.77;;;3.07;;
795;SDS011;381;48.770;9.188;2022-12-31T16:28:25;3.40;;;3.20;;
795;SDS011;381;48.770;9.188;2022-12-31T16:33:31;3.83;;;3.63;;
795;SDS011;381;48.770;9.188;2022-12-31T16:38:34;6.77;;;5.87;;
795;SDS011;381;48.770;9.188;2022-12-31T16:43:38;8.03;;;7.33;;
795;SDS011;381;48.770;9.188;2022-12-31T16:48:45;8.13;;;7.33;;
795;SDS011;381;48.770;9.188;2022-12-31T16:53:48;7.00;;;6.37;;
795;SDS011;381;48.770;9.188;2022-12-31T16:58:53;8.70;;;8.00;;
795;SDS011;381;48.770;9.188;2022-12-31T17:04:01;7.60;;;7.00;;
795;SDS011;381;48.770;9.188;2022-12-31T17:09:09;10.73;;;9.63;;
795;SDS011;381;48.770;9.188;2022-12-31T17:14:14;13.67;;;12.47;;
795;SDS011;381;48.770;9.188;2022-12-31T17:19:23;10.67;;;9.73;;
795;SDS011;381;48.770;9.188;2022-12-31T17:24:38;12.77;;;11.10;;
795;SDS011;381;48.770;9.188;2022-12-31T17:29:41;21.27;;;19.37;;
795;SDS011;381;48.770;9.188;2022-12-31T17:34:48;16.00;;;14.43;;
795;SDS011;381;48.770;9.188;2022-12-31T17:39:51;14.50;;;12.67;;
795;SDS011;381;48.770;9.188;2022-12-31T17:44:57;12.30;;;10.97;;
795;SDS011;381;48.770;9.188;2022-12-31T17:50:05;9.73;;;8.73;;
795;SDS011;381;48.770;9.188;2022-12-31T17:55:17;9.00;;;8.10;;
795;SDS011;381;48.770;9.188;2022-12-31T18:00:20;11.70;;;10.70;;
795;SDS011;381;48.770;9.188;2022-12-31T18:05:25;15.20;;;13.80;;
795;SDS011;381;48.770;9.188;2022-12-31T18:10:27;21.17;;;18.80;;
795;SDS011;381;48.770;9.188;2022-12-31T18:15:32;14.77;;;13.17;;
795;SDS011;381;48.770;9.188;2022-12-31T18:20:35;6.30;;;5.80;;
795;SDS011;381;48.770;9.188;2022-12-31T18:25:37;6.57;;;6.00;;
795;SDS011;381;48.770;9.188;2022-12-31T18:30:39;5.73;;;5.27;;
795;SDS011;381;48.770;9.188;2022-12-31T18:35:44;4.77;;;4.47;;
795;SDS011;381;48.770;9.188;2022-12-31T18:40:48;10.53;;;9.47;;
795;SDS011;381;48.770;9.188;2022-12-31T18:45:54;7.50;;;6.70;;
795;SDS011;381;48.770;9.188;2022-12-31T18:50:57;14.30;;;11.23;;
795;SDS011;381;48.770;9.188;2022-12-31T18:55:59;9.50;;;8.60;;
795;SDS011;381;48.770;9.188;2022-12-31T19:01:01;9.60;;;8.70;;
795;SDS011;381;48.770;9.188;2022-12-31T19:06:05;11.60;;;10.40;;
795;SDS011;381;48.770;9.188;2022-12-31T19:11:09;10.30;;;9.40;;
795;SDS011;381;48.770;9.188;2022-12-31T19:16:14;8.33;;;7.60;;
795;SDS011;381;48.770;9.188;2022-12-31T19:21:19;7.63;;;6.90;;
795;SDS011;381;48.770;9.188;2022-12-31T19:26:23;15.47;;;11.17;;
795;SDS011;381;48.770;9.188;2022-12-31T19:31:25;15.63;;;14.23;;
795;SDS011;381;48.770;9.188;2022-12-31T19:36:28;34.10;;;30.67;;
795;SDS011;381;48.770;9.188;2022-12-31T19:41:30;28.80;;;25.57;;
795;SDS011;381;48.770;9.188;2022-12-31T19:46:33;30.43;;;27.23;;
795;SDS011;381;48.770;9.188;2022-12-31T19:51:36;63.87;;;57.17;;
795;SDS011;381;48.770;9.188;2022-12-31T19:56:38;58.57;;;52.50;;
795;SDS011;381;48.770;9.188;2022-12-31T20:01:41;115.03;;;103.27;;
795;SDS011;381;48.770;9.188;2022-12-31T20:06:44;57.23;;;51.23;;
795;SDS011;381;48.770;9.188;2022-12-31T20:11:46;52.00;;;46.50;;
795;SDS011;381;48.770;9.188;2022-12-31T20:16:49;49.23;;;44.13;;
795;SDS011;381;48.770;9.188;2022-12-31T20:21:54;34.53;;;29.23;;
795;SDS011;381;48.770;9.188;2022-12-31T20:26:57;67.37;;;61.13;;
795;SDS011;381;48.770;9.188;2022-12-31T20:32:01;110.00;;;99.93;;
795;SDS011;381;48.770;9.188;2022-12-31T20:37:06;52.73;;;47.33;;
795;SDS011;381;48.770;9.188;2022-12-31T20:42:08;46.40;;;39.47;;
795;SDS011;381;48.770;9.188;2022-12-31T20:47:11;56.67;;;47.97;;
795;SDS011;381;48.770;9.188;2022-12-31T20:52:14;48.57;;;41.27;;
795;SDS011;381;48.770;9.188;2022-12-31T20:57:17;49.83;;;37.40;;
795;SDS011;381;48.770;9.188;2022-12-31T21:02:19;60.40;;;49.20;;
795;SDS011;381;48.770;9.188;2022-12-31T21:07:22;79.40;;;70.90;;
795;SDS011;381;48.770;9.188;2022-12-31T21:12:24;78.87;;;70.83;;
795;SDS011;381;48.770;9.188;2022-12-31T21:17:49;51.40;;;46.10;;
795;SDS011;381;48.770;9.188;2022-12-31T21:22:53;112.57;;;80.90;;
795;SDS011;381;48.770;9.188;2022-12-31T21:27:55;40.10;;;31.60;;
795;SDS011;381;48.770;9.188;2022-12-31T21:32:57;136.57;;;121.93;;
795;SDS011;381;48.770;9.188;2022-12-31T21:38:01;130.37;;;118.20;;
795;SDS011;381;48.770;9.188;2022-12-31T21:43:04;33.97;;;30.33;;
795;SDS011;381;48.770;9.188;2022-12-31T21:48:06;37.47;;;33.57;;
795;SDS011;381;48.770;9.188;2022-12-31T21:53:25;12.83;;;11.57;;
795;SDS011;381;48.770;9.188;2022-12-31T21:58:27;7.37;;;6.67;;
795;SDS011;381;48.770;9.188;2022-12-31T22:03:30;10.80;;;9.90;;
795;SDS011;381;48.770;9.188;2022-12-31T22:08:34;9.00;;;8.10;;
795;SDS011;381;48.770;9.188;2022-12-31T22:13:37;9.90;;;8.30;;
795;SDS011;381;48.770;9.188;2022-12-31T22:18:40;10.67;;;9.73;;
795;SDS011;381;48.770;9.188;2022-12-31T22:23:44;10.40;;;9.43;;
795;SDS011;381;48.770;9.188;2022-12-31T22:28:48;12.20;;;10.70;;
795;SDS011;381;48.770;9.188;2022-12-31T22:33:51;10.80;;;9.90;;
795;SDS011;381;48.770;9.188;2022-12-31T22:38:56;12.60;;;10.87;;
795;SDS011;381;48.770;9.188;2022-12-31T22:43:58;15.63;;;12.60;;
795;SDS011;381;48.770;9.188;2022-12-31T22:49:01;14.30;;;12.40;;
795;SDS011;381;48.770;9.188;2022-12-31T22:54:05;11.60;;;10.50;;
795;SDS011;381;48.770;9.188;2022-12-31T22:59:07;16.73;;;15.23;;
795;SDS011;381;48.770;9.188;2022-12-31T23:04:10;62.53;;;42.10;;
795;SDS011;381;48.770;9.188;2022-12-31T23:09:14;215.73;;;192.63;;
795;SDS011;381;48.770;9.188;2022-12-31T23:14:35;231.97;;;206.50;;
795;SDS011;381;48.770;9.188;2022-12-31T23:19:55;441.13;;;394.30;;
795;SDS011;381;48.770;9.188;2022-12-31T23:25:15;136.17;;;120.73;;
795;SDS011;381;48.770;9.188;2022-12-31T23:30:18;398.57;;;354.57;;
795;SDS011;381;48.770;9.188;2022-12-31T23:35:20;152.63;;;108.50;;
795;SDS011;381;48.770;9.188;2022-12-31T23:40:23;63.37;;;50.50;;
795;SDS011;381;48.770;9.188;2022-12-31T23:45:33;67.87;;;60.17;;
795;SDS011;381;48.770;9.188;2022-12-31T23:50:35;43.40;;;38.90;;
795;SDS011;381;48.770;9.188;2022-12-31T23:55:38;39.33;;;35.30;;
